High Springs, Florida
Current Conditions -  °F | °C
As of 8:40 AM on Thursday 30 Oct 2014 (Local Time) from KGNV Reporting Station
Haze Haze  
Wind Chill: 17°   Ceiling: 200
Heat Index: 17°   Visibility: 1.7mi
Dew Point: 17°   Wind: 0mph
Humidity: 97%   Direction: NA
Pressure: 30"   Gusts: NA
Location:  29.82°N, 82.59°W
Report Text: KGNV 301240Z 00000KT 1 3/4SM BR OVC002 17/17 A3000 RMK AO2 T01720167
Loading
Personal Weather Stations






























Interactive Weather Map
Tropical Storm Tracking
New forecast layout! Learn more

10-Day Weather Forecast

Advertisements
Track Severe Weather on mobile